Time;durP1;ratioP1;P1;durP2;ratioP2;P2;SDS_P1;SDS_P2;PMS_P1;PMS_P2;Temp;Humidity;BMP_temperature;BMP_pressure;BME280_temperature;BME280_humidity;BME280_pressure;Samples;Min_cycle;Max_cycle;Signal;HPM_P1;HPM_P2
2021/06/14 00:00:14;;;;;;;;;;;21.80;45.10;;;;;;495606;240;1073;-75
2021/06/14 00:02:16;;;;;;;;;;;21.80;45.10;;;;;;495535;240;1156;-75
2021/06/14 00:04:17;;;;;;;;;;;21.90;45.00;;;;;;495566;240;1074;-75
2021/06/14 00:06:18;;;;;;;;;;;21.90;45.10;;;;;;495539;240;1231;-75
2021/06/14 00:08:20;;;;;;;;;;;21.90;45.00;;;;;;495529;240;1132;-75
2021/06/14 00:10:21;;;;;;;;;;;21.90;44.90;;;;;;495538;240;2186;-75
2021/06/14 00:12:22;;;;;;;;;;;21.90;44.80;;;;;;495605;240;1206;-75
2021/06/14 00:14:24;;;;;;;;;;;21.90;44.80;;;;;;495511;240;1084;-75
2021/06/14 00:16:25;;;;;;;;;;;21.90;44.90;;;;;;495507;240;1183;-75
2021/06/14 00:18:26;;;;;;;;;;;21.70;45.30;;;;;;495580;240;1062;-75
2021/06/14 00:20:28;;;;;;;;;;;21.70;45.50;;;;;;495661;240;961;-75
2021/06/14 00:22:29;;;;;;;;;;;21.60;45.60;;;;;;495511;240;1056;-75
2021/06/14 00:24:30;;;;;;;;;;;21.50;45.80;;;;;;495559;240;1015;-75
2021/06/14 00:26:32;;;;;;;;;;;21.50;45.80;;;;;;495497;240;1020;-75
2021/06/14 00:28:33;;;;;;;;;;;21.40;45.90;;;;;;495616;240;1021;-75
2021/06/14 00:30:34;;;;;;;;;;;21.40;45.90;;;;;;495718;240;2182;-75
2021/06/14 00:32:36;;;;;;;;;;;21.40;46.00;;;;;;495551;240;1156;-75
2021/06/14 00:34:37;;;;;;;;;;;21.30;46.10;;;;;;495511;240;1146;-75
2021/06/14 00:36:39;;;;;;;;;;;21.40;46.10;;;;;;495512;240;1063;-75
2021/06/14 00:38:40;;;;;;;;;;;21.30;46.10;;;;;;495504;240;1031;-75
2021/06/14 00:40:41;;;;;;;;;;;21.30;46.20;;;;;;495754;240;1049;-75
2021/06/14 00:42:44;;;;;;;;;;;21.20;46.20;;;;;;495519;240;1031;-75
2021/06/14 00:44:44;;;;;;;;;;;21.30;46.10;;;;;;495732;240;1431;-75
2021/06/14 00:46:45;;;;;;;;;;;21.30;46.10;;;;;;495449;240;1300;-75
2021/06/14 00:48:47;;;;;;;;;;;21.30;46.20;;;;;;495528;240;1039;-75
2021/06/14 00:50:48;;;;;;;;;;;21.20;46.30;;;;;;495552;240;2099;-75
2021/06/14 00:52:49;;;;;;;;;;;21.20;46.30;;;;;;495553;240;1066;-75
2021/06/14 00:54:50;;;;;;;;;;;21.20;46.40;;;;;;495535;240;1108;-75
2021/06/14 00:56:52;;;;;;;;;;;21.20;46.40;;;;;;495581;240;1059;-75
2021/06/14 00:58:53;;;;;;;;;;;21.20;46.30;;;;;;495529;240;972;-75
2021/06/14 01:00:54;;;;;;;;;;;21.40;45.90;;;;;;495581;240;1078;-75
2021/06/14 01:02:56;;;;;;;;;;;21.60;45.50;;;;;;495537;240;1160;-75
2021/06/14 01:04:57;;;;;;;;;;;21.70;45.30;;;;;;495510;240;1036;-75
2021/06/14 01:06:59;;;;;;;;;;;21.80;45.00;;;;;;495487;240;1177;-75
2021/06/14 01:09:00;;;;;;;;;;;21.80;44.90;;;;;;495537;240;2151;-75
2021/06/14 01:11:01;;;;;;;;;;;21.80;44.90;;;;;;495553;240;1105;-75
2021/06/14 01:13:06;;;;;;;;;;;21.90;44.70;;;;;;495524;240;1083;-75
2021/06/14 01:15:08;;;;;;;;;;;21.90;44.70;;;;;;495590;240;1038;-75
2021/06/14 01:17:09;;;;;;;;;;;21.90;44.50;;;;;;495581;240;2042;-75
2021/06/14 01:19:10;;;;;;;;;;;21.90;44.60;;;;;;495490;240;1049;-75
2021/06/14 01:21:12;;;;;;;;;;;21.90;44.50;;;;;;495484;240;1033;-75
2021/06/14 01:23:13;;;;;;;;;;;21.80;44.70;;;;;;495532;240;1040;-75
2021/06/14 01:25:14;;;;;;;;;;;21.60;45.00;;;;;;495568;240;1065;-75
2021/06/14 01:27:16;;;;;;;;;;;21.60;45.30;;;;;;495529;240;1053;-75
2021/06/14 01:29:17;;;;;;;;;;;21.50;45.30;;;;;;495478;240;2241;-75
2021/06/14 01:31:18;;;;;;;;;;;21.50;45.40;;;;;;495627;240;1126;-75
2021/06/14 01:33:20;;;;;;;;;;;21.40;45.40;;;;;;495535;240;1047;-75
2021/06/14 01:35:21;;;;;;;;;;;21.40;45.70;;;;;;495497;240;1102;-76
2021/06/14 01:37:22;;;;;;;;;;;21.40;45.70;;;;;;495502;240;1066;-75
2021/06/14 01:39:24;;;;;;;;;;;21.40;45.80;;;;;;495482;240;1066;-75
2021/06/14 01:41:25;;;;;;;;;;;21.40;45.70;;;;;;495489;240;1216;-75
2021/06/14 01:43:26;;;;;;;;;;;21.40;45.70;;;;;;495610;240;1065;-75
2021/06/14 01:45:28;;;;;;;;;;;21.30;45.70;;;;;;495507;240;1027;-75
2021/06/14 01:47:29;;;;;;;;;;;21.30;45.90;;;;;;495552;240;1170;-75
2021/06/14 01:49:30;;;;;;;;;;;21.30;45.90;;;;;;495525;240;2146;-75
2021/06/14 01:51:32;;;;;;;;;;;21.40;45.70;;;;;;495496;240;1238;-75
2021/06/14 01:53:33;;;;;;;;;;;21.30;45.80;;;;;;495558;240;1141;-75
2021/06/14 01:55:34;;;;;;;;;;;21.30;45.90;;;;;;495614;240;1019;-75
2021/06/14 01:57:36;;;;;;;;;;;21.30;45.90;;;;;;495517;240;1129;-75
2021/06/14 01:59:38;;;;;;;;;;;21.50;45.70;;;;;;495658;240;1019;-75
2021/06/14 02:01:38;;;;;;;;;;;21.60;45.20;;;;;;495496;240;1552;-75
2021/06/14 02:03:40;;;;;;;;;;;21.70;44.90;;;;;;495539;240;1036;-75
2021/06/14 02:05:41;;;;;;;;;;;21.80;44.70;;;;;;495590;240;1034;-75
2021/06/14 02:07:42;;;;;;;;;;;21.80;44.60;;;;;;495439;240;1109;-75
2021/06/14 02:09:44;;;;;;;;;;;21.90;44.60;;;;;;495590;240;2139;-75
2021/06/14 02:11:45;;;;;;;;;;;21.90;44.50;;;;;;495480;240;1036;-75
2021/06/14 02:13:46;;;;;;;;;;;21.90;44.40;;;;;;495525;240;958;-75
2021/06/14 02:15:48;;;;;;;;;;;21.90;44.50;;;;;;495481;240;1017;-75
2021/06/14 02:17:49;;;;;;;;;;;21.90;44.50;;;;;;495532;240;1267;-75
2021/06/14 02:19:50;;;;;;;;;;;21.90;44.40;;;;;;495601;240;1064;-75
2021/06/14 02:21:52;;;;;;;;;;;21.90;44.40;;;;;;495366;240;1143;-75
2021/06/14 02:23:53;;;;;;;;;;;22.00;44.40;;;;;;495564;240;1021;-75
2021/06/14 02:25:54;;;;;;;;;;;21.90;44.40;;;;;;495451;240;1180;-75
2021/06/14 02:27:56;;;;;;;;;;;22.00;44.40;;;;;;495600;240;1127;-75
2021/06/14 02:29:57;;;;;;;;;;;21.90;44.40;;;;;;495658;240;2181;-75
2021/06/14 02:31:58;;;;;;;;;;;22.00;44.40;;;;;;495402;240;1185;-75
2021/06/14 02:34:00;;;;;;;;;;;21.90;44.30;;;;;;495509;240;1148;-75
2021/06/14 02:36:01;;;;;;;;;;;21.90;44.50;;;;;;495408;240;1165;-75
2021/06/14 02:38:02;;;;;;;;;;;21.70;44.60;;;;;;495563;240;1148;-75
2021/06/14 02:40:04;;;;;;;;;;;21.60;45.10;;;;;;495507;240;967;-75
2021/06/14 02:42:05;;;;;;;;;;;21.40;45.40;;;;;;495446;240;1222;-75
2021/06/14 02:44:06;;;;;;;;;;;21.40;45.50;;;;;;495495;240;1077;-75
2021/06/14 02:46:08;;;;;;;;;;;21.30;45.60;;;;;;495443;240;1224;-75
2021/06/14 02:48:09;;;;;;;;;;;21.30;45.50;;;;;;495560;240;1145;-75
2021/06/14 02:50:10;;;;;;;;;;;21.30;45.70;;;;;;495637;240;2186;-75
2021/06/14 02:52:12;;;;;;;;;;;21.30;45.80;;;;;;495457;240;1175;-75
2021/06/14 02:54:13;;;;;;;;;;;21.20;45.70;;;;;;495549;240;1031;-75
2021/06/14 02:56:14;;;;;;;;;;;21.30;45.80;;;;;;495433;240;1418;-75
2021/06/14 02:58:16;;;;;;;;;;;21.20;45.70;;;;;;495622;240;1030;-75
2021/06/14 03:00:17;;;;;;;;;;;21.30;45.60;;;;;;495594;240;1016;-75
2021/06/14 03:02:18;;;;;;;;;;;21.50;45.30;;;;;;495501;240;1128;-75
2021/06/14 03:04:20;;;;;;;;;;;21.60;44.80;;;;;;495563;240;1094;-75
2021/06/14 03:06:21;;;;;;;;;;;21.70;44.70;;;;;;495478;240;1196;-75
2021/06/14 03:08:22;;;;;;;;;;;21.70;44.70;;;;;;495538;240;992;-75
2021/06/14 03:10:24;;;;;;;;;;;21.70;44.60;;;;;;495797;240;2151;-75
2021/06/14 03:12:25;;;;;;;;;;;21.70;44.50;;;;;;495444;240;1194;-75
2021/06/14 03:14:26;;;;;;;;;;;21.70;44.50;;;;;;495580;240;919;-75
2021/06/14 03:16:28;;;;;;;;;;;21.80;44.50;;;;;;495618;240;1031;-75
2021/06/14 03:18:29;;;;;;;;;;;21.80;44.50;;;;;;495598;240;1120;-75
2021/06/14 03:20:30;;;;;;;;;;;21.80;44.40;;;;;;495582;240;962;-75
2021/06/14 03:22:32;;;;;;;;;;;21.80;44.50;;;;;;495494;240;1065;-76
2021/06/14 03:24:33;;;;;;;;;;;21.80;44.50;;;;;;495576;240;1033;-75
2021/06/14 03:26:34;;;;;;;;;;;21.70;44.60;;;;;;495445;240;1179;-75
2021/06/14 03:28:36;;;;;;;;;;;21.60;44.90;;;;;;495581;240;1033;-75
2021/06/14 03:30:37;;;;;;;;;;;21.50;45.00;;;;;;495575;240;2131;-75
2021/06/14 03:32:38;;;;;;;;;;;21.40;45.20;;;;;;495488;240;1134;-75
2021/06/14 03:34:40;;;;;;;;;;;21.40;45.20;;;;;;495603;240;1038;-75
2021/06/14 03:36:41;;;;;;;;;;;21.50;45.20;;;;;;495822;240;1212;-75
2021/06/14 03:38:42;;;;;;;;;;;21.40;45.30;;;;;;495581;240;1340;-75
2021/06/14 03:40:44;;;;;;;;;;;21.40;45.30;;;;;;495566;240;1060;-75
2021/06/14 03:42:45;;;;;;;;;;;21.30;45.40;;;;;;495625;240;1105;-75
2021/06/14 03:44:46;;;;;;;;;;;21.20;45.40;;;;;;495532;240;1046;-75
2021/06/14 03:46:48;;;;;;;;;;;21.30;45.40;;;;;;495579;240;1223;-75
2021/06/14 03:48:49;;;;;;;;;;;21.20;45.50;;;;;;495559;240;1169;-75
2021/06/14 03:50:54;;;;;;;;;;;21.20;45.60;;;;;;495482;240;2138;-75
2021/06/14 03:52:52;;;;;;;;;;;21.20;45.80;;;;;;495450;240;1451;-75
2021/06/14 03:54:53;;;;;;;;;;;21.20;45.90;;;;;;495607;240;1103;-75
2021/06/14 03:56:54;;;;;;;;;;;21.20;45.70;;;;;;495544;240;1327;-76
2021/06/14 03:58:56;;;;;;;;;;;21.40;45.30;;;;;;495522;240;1088;-76
2021/06/14 04:00:57;;;;;;;;;;;21.60;44.90;;;;;;495495;240;1225;-76
2021/06/14 04:02:58;;;;;;;;;;;21.80;44.70;;;;;;495532;240;1192;-76
2021/06/14 04:05:00;;;;;;;;;;;21.80;44.50;;;;;;495728;240;1065;-76
2021/06/14 04:07:01;;;;;;;;;;;21.80;44.40;;;;;;495499;240;1227;-75
2021/06/14 04:09:02;;;;;;;;;;;21.80;44.30;;;;;;495525;240;1044;-75
2021/06/14 04:11:04;;;;;;;;;;;21.80;44.30;;;;;;495485;240;2178;-75
2021/06/14 04:13:05;;;;;;;;;;;21.80;44.30;;;;;;495469;240;1033;-75
2021/06/14 04:15:06;;;;;;;;;;;21.90;44.40;;;;;;495504;240;1156;-75
2021/06/14 04:17:08;;;;;;;;;;;21.90;44.20;;;;;;495402;240;1024;-75
2021/06/14 04:19:09;;;;;;;;;;;21.90;44.20;;;;;;495421;240;1177;-75
2021/06/14 04:21:10;;;;;;;;;;;22.00;44.20;;;;;;495394;240;1254;-75
2021/06/14 04:23:12;;;;;;;;;;;21.90;44.20;;;;;;495475;240;1121;-76
2021/06/14 04:25:13;;;;;;;;;;;22.00;44.20;;;;;;495406;240;1129;-76
2021/06/14 04:27:14;;;;;;;;;;;21.90;44.20;;;;;;495740;237;1239;-76
2021/06/14 04:29:16;;;;;;;;;;;21.90;44.20;;;;;;495473;240;1027;-76
2021/06/14 04:31:17;;;;;;;;;;;22.00;44.20;;;;;;495415;240;2126;-75
2021/06/14 04:33:18;;;;;;;;;;;21.80;44.50;;;;;;495405;240;1189;-75
2021/06/14 04:35:20;;;;;;;;;;;21.60;44.90;;;;;;495359;240;1055;-75
2021/06/14 04:37:21;;;;;;;;;;;21.60;45.10;;;;;;495365;240;1074;-75
2021/06/14 04:39:22;;;;;;;;;;;21.40;45.20;;;;;;495429;240;1048;-75
2021/06/14 04:41:24;;;;;;;;;;;21.40;45.30;;;;;;495357;240;1184;-75
2021/06/14 04:43:25;;;;;;;;;;;21.40;45.50;;;;;;495442;240;1156;-75
2021/06/14 04:45:26;;;;;;;;;;;21.40;45.50;;;;;;495403;240;1259;-75
2021/06/14 04:47:28;;;;;;;;;;;21.30;45.50;;;;;;495270;240;1120;-75
2021/06/14 04:49:29;;;;;;;;;;;21.30;45.60;;;;;;495399;240;1180;-75
2021/06/14 04:51:30;;;;;;;;;;;21.30;45.60;;;;;;495323;240;2186;-75
2021/06/14 04:53:32;;;;;;;;;;;21.30;45.70;;;;;;495252;240;1046;-75
2021/06/14 04:55:33;;;;;;;;;;;21.20;45.70;;;;;;495395;240;1038;-75
2021/06/14 04:57:34;;;;;;;;;;;21.30;45.80;;;;;;495329;240;1175;-76
2021/06/14 04:59:36;;;;;;;;;;;21.30;45.70;;;;;;495332;240;1053;-75
2021/06/14 05:01:37;;;;;;;;;;;21.30;45.70;;;;;;495306;240;1093;-75
2021/06/14 05:03:38;;;;;;;;;;;21.20;45.80;;;;;;495230;240;1138;-75
2021/06/14 05:05:40;;;;;;;;;;;21.50;45.60;;;;;;495224;240;1149;-75
2021/06/14 05:07:41;;;;;;;;;;;21.60;45.20;;;;;;495289;240;1136;-76
2021/06/14 05:09:42;;;;;;;;;;;21.70;44.90;;;;;;495336;240;1024;-76
2021/06/14 05:11:45;;;;;;;;;;;21.70;44.80;;;;;;495123;240;2189;-76
2021/06/14 05:13:45;;;;;;;;;;;21.80;44.80;;;;;;495270;240;1463;-76
2021/06/14 05:15:46;;;;;;;;;;;21.80;44.70;;;;;;495193;240;1236;-76
2021/06/14 05:17:48;;;;;;;;;;;21.80;44.60;;;;;;495114;240;1090;-76
2021/06/14 05:19:49;;;;;;;;;;;21.90;44.60;;;;;;495191;240;1420;-76
2021/06/14 05:21:50;;;;;;;;;;;21.90;44.60;;;;;;495078;240;1068;-76
2021/06/14 05:23:52;;;;;;;;;;;21.90;44.60;;;;;;495133;240;1134;-76
2021/06/14 05:25:53;;;;;;;;;;;21.90;44.60;;;;;;495162;240;1097;-76
2021/06/14 05:27:54;;;;;;;;;;;21.90;44.60;;;;;;495273;240;1152;-76
2021/06/14 05:29:56;;;;;;;;;;;21.90;44.60;;;;;;495345;240;1078;-76
2021/06/14 05:31:57;;;;;;;;;;;21.70;45.00;;;;;;495117;240;2198;-76
2021/06/14 05:33:58;;;;;;;;;;;21.60;45.20;;;;;;495049;237;1347;-77
2021/06/14 05:36:00;;;;;;;;;;;21.60;45.50;;;;;;495186;240;1079;-76
2021/06/14 05:38:01;;;;;;;;;;;21.50;45.60;;;;;;495200;240;1176;-76
2021/06/14 05:40:02;;;;;;;;;;;21.40;45.80;;;;;;495170;240;1049;-76
2021/06/14 05:42:04;;;;;;;;;;;21.40;45.80;;;;;;495165;240;1116;-76
2021/06/14 05:44:05;;;;;;;;;;;21.40;45.90;;;;;;495185;240;1047;-76
2021/06/14 05:46:06;;;;;;;;;;;21.40;45.90;;;;;;495125;240;1065;-76
2021/06/14 05:48:08;;;;;;;;;;;21.40;45.90;;;;;;495140;240;1090;-76
2021/06/14 05:50:09;;;;;;;;;;;21.40;46.10;;;;;;495094;240;1095;-76
2021/06/14 05:52:10;;;;;;;;;;;21.40;46.10;;;;;;494957;240;2174;-76
2021/06/14 05:54:12;;;;;;;;;;;21.30;46.20;;;;;;494999;240;1084;-76
2021/06/14 05:56:13;;;;;;;;;;;21.30;46.20;;;;;;494930;240;1056;-76
2021/06/14 05:58:14;;;;;;;;;;;21.40;46.20;;;;;;494884;240;1041;-76
2021/06/14 06:00:16;;;;;;;;;;;21.40;46.20;;;;;;494984;240;1071;-76
2021/06/14 06:02:17;;;;;;;;;;;21.40;46.20;;;;;;494819;240;1142;-76
2021/06/14 06:04:19;;;;;;;;;;;21.30;46.20;;;;;;494885;240;1080;-75
2021/06/14 06:06:20;;;;;;;;;;;21.30;46.30;;;;;;494801;240;1321;-76
2021/06/14 06:08:21;;;;;;;;;;;21.30;46.30;;;;;;494978;240;1032;-76
2021/06/14 06:10:22;;;;;;;;;;;21.30;46.40;;;;;;495030;240;1172;-76
2021/06/14 06:12:24;;;;;;;;;;;21.20;46.40;;;;;;494944;240;2138;-76
2021/06/14 06:14:25;;;;;;;;;;;21.20;46.50;;;;;;494876;240;1034;-76
2021/06/14 06:16:26;;;;;;;;;;;21.30;46.50;;;;;;494867;240;1172;-76
2021/06/14 06:18:28;;;;;;;;;;;21.30;46.50;;;;;;494798;240;1087;-75
2021/06/14 06:20:29;;;;;;;;;;;21.40;46.40;;;;;;494855;240;1224;-76
2021/06/14 06:22:30;;;;;;;;;;;21.60;46.10;;;;;;494800;240;1036;-76
2021/06/14 06:24:32;;;;;;;;;;;21.70;45.80;;;;;;494870;240;1191;-76
2021/06/14 06:26:33;;;;;;;;;;;21.70;45.70;;;;;;494949;240;1245;-76
2021/06/14 06:28:34;;;;;;;;;;;21.70;45.70;;;;;;494951;240;1136;-76
2021/06/14 06:30:37;;;;;;;;;;;21.80;45.60;;;;;;495005;240;1108;-76
2021/06/14 06:32:38;;;;;;;;;;;21.80;45.60;;;;;;494996;240;2250;-76
2021/06/14 06:34:39;;;;;;;;;;;21.80;45.50;;;;;;495082;240;1234;-76
2021/06/14 06:36:40;;;;;;;;;;;21.80;45.50;;;;;;495006;240;1084;-75
2021/06/14 06:38:42;;;;;;;;;;;21.90;45.50;;;;;;494953;240;1080;-76
2021/06/14 06:40:43;;;;;;;;;;;21.90;45.60;;;;;;494953;240;1053;-76
2021/06/14 06:42:44;;;;;;;;;;;21.90;45.60;;;;;;495091;240;1056;-75
2021/06/14 06:44:46;;;;;;;;;;;21.90;45.50;;;;;;494956;240;1124;-76
2021/06/14 06:46:47;;;;;;;;;;;22.00;45.50;;;;;;494896;240;1037;-76
2021/06/14 06:48:48;;;;;;;;;;;22.00;45.40;;;;;;494925;240;1084;-76
2021/06/14 06:50:50;;;;;;;;;;;22.10;45.30;;;;;;494854;240;1179;-76
2021/06/14 06:52:51;;;;;;;;;;;22.00;45.30;;;;;;494416;240;2178;-76
2021/06/14 06:54:52;;;;;;;;;;;22.10;45.40;;;;;;494662;240;1244;-76
2021/06/14 06:56:54;;;;;;;;;;;22.00;45.30;;;;;;494658;240;1175;-76
2021/06/14 06:58:55;;;;;;;;;;;21.90;45.70;;;;;;494722;240;1075;-76
2021/06/14 07:00:58;;;;;;;;;;;21.70;46.00;;;;;;494615;240;1075;-75
2021/06/14 07:02:58;;;;;;;;;;;21.60;46.20;;;;;;494527;240;1401;-76
2021/06/14 07:04:59;;;;;;;;;;;21.60;46.50;;;;;;494637;240;1088;-76
2021/06/14 07:07:00;;;;;;;;;;;21.50;46.60;;;;;;494381;240;1088;-76
2021/06/14 07:09:02;;;;;;;;;;;21.50;46.90;;;;;;494304;240;1150;-76
2021/06/14 07:11:03;;;;;;;;;;;21.50;46.80;;;;;;494242;240;1376;-76
2021/06/14 07:13:04;;;;;;;;;;;21.40;47.00;;;;;;494375;240;2171;-76
2021/06/14 07:15:06;;;;;;;;;;;21.40;47.10;;;;;;494475;240;1074;-76
2021/06/14 07:17:07;;;;;;;;;;;21.40;47.10;;;;;;494513;240;1342;-75
2021/06/14 07:19:08;;;;;;;;;;;21.40;47.20;;;;;;494526;240;1070;-76
2021/06/14 07:21:10;;;;;;;;;;;21.40;47.30;;;;;;494678;240;1209;-76
2021/06/14 07:23:11;;;;;;;;;;;21.40;47.30;;;;;;494519;240;1231;-76
2021/06/14 07:25:12;;;;;;;;;;;21.40;47.30;;;;;;494622;240;1251;-76
2021/06/14 07:27:14;;;;;;;;;;;21.40;47.50;;;;;;494469;240;1035;-76
2021/06/14 07:29:15;;;;;;;;;;;21.40;47.60;;;;;;494529;240;1066;-76
2021/06/14 07:31:17;;;;;;;;;;;21.40;47.60;;;;;;494376;240;2163;-76
2021/06/14 07:33:18;;;;;;;;;;;21.40;47.70;;;;;;494497;240;1136;-76
2021/06/14 07:35:20;;;;;;;;;;;21.30;47.80;;;;;;494459;240;1185;-76
2021/06/14 07:37:21;;;;;;;;;;;21.40;47.90;;;;;;494489;240;1065;-76
2021/06/14 07:39:22;;;;;;;;;;;21.30;47.80;;;;;;494470;240;1063;-76
2021/06/14 07:41:23;;;;;;;;;;;21.30;47.90;;;;;;494517;240;1092;-75
2021/06/14 07:43:25;;;;;;;;;;;21.30;47.90;;;;;;494579;240;1185;-76
2021/06/14 07:45:26;;;;;;;;;;;21.40;47.80;;;;;;494653;240;1102;-76
2021/06/14 07:47:27;;;;;;;;;;;21.60;47.50;;;;;;494447;240;1133;-76
2021/06/14 07:49:29;;;;;;;;;;;21.70;47.10;;;;;;494460;240;1052;-76
2021/06/14 07:51:30;;;;;;;;;;;21.80;46.90;;;;;;494381;240;2163;-76
2021/06/14 07:53:31;;;;;;;;;;;21.90;46.80;;;;;;494331;240;1082;-76
2021/06/14 07:55:33;;;;;;;;;;;22.00;46.80;;;;;;494420;240;1077;-76
2021/06/14 07:57:34;;;;;;;;;;;22.00;46.80;;;;;;494466;240;1113;-76
2021/06/14 07:59:35;;;;;;;;;;;22.00;46.80;;;;;;494467;240;1068;-76
2021/06/14 08:01:37;;;;;;;;;;;22.00;46.80;;;;;;494288;240;1294;-76
2021/06/14 08:03:38;;;;;;;;;;;22.00;46.70;;;;;;494337;240;1093;-76
2021/06/14 08:05:39;;;;;;;;;;;22.10;46.60;;;;;;494339;240;1095;-76
2021/06/14 08:07:41;;;;;;;;;;;22.00;46.70;;;;;;494300;240;1116;-75
2021/06/14 08:09:43;;;;;;;;;;;21.80;47.10;;;;;;494851;240;1319;-75
2021/06/14 08:11:44;;;;;;;;;;;21.70;47.40;;;;;;494382;240;2143;-76
2021/06/14 08:13:45;;;;;;;;;;;21.70;47.60;;;;;;494326;240;1359;-76
2021/06/14 08:15:46;;;;;;;;;;;21.60;47.60;;;;;;494381;240;1074;-76
2021/06/14 08:17:48;;;;;;;;;;;21.60;47.90;;;;;;494305;240;1122;-76
2021/06/14 08:19:52;;;;;;;;;;;21.60;47.80;;;;;;493939;240;1209;-76
2021/06/14 08:26:28;;;;;;;;;;;21.50;48.00;;;;;;494560;240;1320;-76
2021/06/14 08:28:30;;;;;;;;;;;21.50;48.20;;;;;;494621;240;1016;-76
2021/06/14 08:30:31;;;;;;;;;;;21.50;48.20;;;;;;494670;240;970;-76
2021/06/14 08:32:32;;;;;;;;;;;21.50;48.10;;;;;;494682;240;2173;-76
2021/06/14 08:34:34;;;;;;;;;;;21.50;48.20;;;;;;494855;240;1121;-75
2021/06/14 08:36:35;;;;;;;;;;;21.50;48.20;;;;;;494713;240;1272;-76
2021/06/14 08:38:36;;;;;;;;;;;21.50;48.20;;;;;;494352;240;1157;-76
2021/06/14 08:40:38;;;;;;;;;;;21.50;48.20;;;;;;493609;240;1052;-76
2021/06/14 08:42:39;;;;;;;;;;;21.40;48.20;;;;;;494190;240;1191;-76
2021/06/14 08:44:40;;;;;;;;;;;21.40;48.00;;;;;;494563;240;1341;-76
2021/06/14 08:46:41;;;;;;;;;;;21.40;48.10;;;;;;495163;240;1080;-76
2021/06/14 08:48:43;;;;;;;;;;;21.40;48.20;;;;;;494564;240;796;-76
2021/06/14 08:50:44;;;;;;;;;;;21.40;48.40;;;;;;494535;240;1076;-76
2021/06/14 08:52:45;;;;;;;;;;;21.40;48.30;;;;;;494716;240;2246;-76
2021/06/14 08:54:47;;;;;;;;;;;21.50;48.30;;;;;;494426;240;1090;-76
2021/06/14 08:56:48;;;;;;;;;;;21.70;47.70;;;;;;494977;240;1268;-76
2021/06/14 08:58:49;;;;;;;;;;;21.80;47.50;;;;;;494384;240;804;-76
2021/06/14 09:00:51;;;;;;;;;;;22.00;47.30;;;;;;493749;240;1390;-76
2021/06/14 09:02:52;;;;;;;;;;;22.10;46.90;;;;;;494109;240;1157;-76
2021/06/14 09:04:53;;;;;;;;;;;22.10;46.90;;;;;;495054;240;1008;-76
2021/06/14 09:06:55;;;;;;;;;;;22.10;47.00;;;;;;494777;240;1177;-76
2021/06/14 09:08:56;;;;;;;;;;;22.10;47.00;;;;;;494524;240;801;-76
2021/06/14 09:10:58;;;;;;;;;;;22.20;46.90;;;;;;495065;236;1453;-76
2021/06/14 09:12:59;;;;;;;;;;;22.20;46.80;;;;;;494921;240;2178;-76
2021/06/14 09:15:00;;;;;;;;;;;22.10;46.90;;;;;;494802;240;1058;-76
2021/06/14 09:17:02;;;;;;;;;;;22.00;47.10;;;;;;495098;240;1073;-76
2021/06/14 09:19:03;;;;;;;;;;;21.90;47.30;;;;;;495139;240;697;-76
2021/06/14 09:21:04;;;;;;;;;;;21.80;47.50;;;;;;494660;240;1095;-75
2021/06/14 09:23:06;;;;;;;;;;;21.70;47.70;;;;;;494840;240;1038;-76
2021/06/14 09:25:07;;;;;;;;;;;21.70;47.70;;;;;;494978;240;798;-76
2021/06/14 09:27:08;;;;;;;;;;;21.60;47.90;;;;;;494497;240;1410;-76
2021/06/14 09:29:10;;;;;;;;;;;21.60;48.00;;;;;;494955;240;758;-76
2021/06/14 09:31:11;;;;;;;;;;;21.60;48.00;;;;;;494452;240;1768;-76
2021/06/14 09:33:12;;;;;;;;;;;21.60;47.90;;;;;;494223;240;2195;-76
2021/06/14 09:35:14;;;;;;;;;;;21.60;47.90;;;;;;494832;240;753;-76
2021/06/14 09:37:15;;;;;;;;;;;21.50;48.00;;;;;;494656;240;1266;-76
2021/06/14 09:39:18;;;;;;;;;;;21.50;48.10;;;;;;494483;240;765;-76
2021/06/14 09:41:18;;;;;;;;;;;21.40;48.20;;;;;;495170;240;1313;-76
2021/06/14 09:43:19;;;;;;;;;;;21.40;48.10;;;;;;495037;240;887;-76
2021/06/14 09:45:20;;;;;;;;;;;21.40;48.10;;;;;;494767;240;1088;-76
2021/06/14 09:47:21;;;;;;;;;;;21.50;48.20;;;;;;494289;240;1053;-76
2021/06/14 09:49:23;;;;;;;;;;;21.50;48.10;;;;;;494223;240;1086;-76
2021/06/14 09:51:24;;;;;;;;;;;21.40;48.00;;;;;;494093;240;1135;-76
2021/06/14 09:53:26;;;;;;;;;;;21.40;48.10;;;;;;494501;240;2178;-76
2021/06/14 09:55:27;;;;;;;;;;;21.40;48.20;;;;;;495182;240;1167;-76
2021/06/14 09:57:29;;;;;;;;;;;21.40;48.00;;;;;;494115;240;1166;-75
2021/06/14 09:59:30;;;;;;;;;;;21.40;48.00;;;;;;493857;240;1074;-76
2021/06/14 10:01:31;;;;;;;;;;;21.50;48.10;;;;;;494275;240;1298;-75
2021/06/14 10:03:32;;;;;;;;;;;21.50;48.20;;;;;;494256;240;1338;-76
2021/06/14 10:05:37;;;;;;;;;;;21.60;48.00;;;;;;494283;240;1150;-76
2021/06/14 10:07:35;;;;;;;;;;;21.60;47.80;;;;;;494367;240;1326;-75
2021/06/14 10:09:36;;;;;;;;;;;21.60;47.60;;;;;;494258;240;1108;-76
2021/06/14 10:11:38;;;;;;;;;;;21.60;47.70;;;;;;494228;237;1343;-76
2021/06/14 10:13:39;;;;;;;;;;;21.60;47.70;;;;;;494217;240;2138;-76
2021/06/14 10:15:40;;;;;;;;;;;21.60;47.70;;;;;;494279;240;1056;-75
2021/06/14 10:17:42;;;;;;;;;;;21.60;47.50;;;;;;494372;240;1367;-75
2021/06/14 10:19:43;;;;;;;;;;;21.70;47.50;;;;;;494404;240;1198;-76
2021/06/14 10:21:44;;;;;;;;;;;21.70;47.50;;;;;;494387;240;1187;-76
2021/06/14 10:23:46;;;;;;;;;;;21.80;47.40;;;;;;494446;240;1082;-76
2021/06/14 10:25:47;;;;;;;;;;;21.80;47.30;;;;;;494409;240;1022;-76
2021/06/14 10:27:48;;;;;;;;;;;21.70;47.40;;;;;;494382;240;1284;-76
2021/06/14 10:29:50;;;;;;;;;;;21.60;47.80;;;;;;494825;236;1408;-76
2021/06/14 10:31:51;;;;;;;;;;;21.50;47.90;;;;;;494995;240;1239;-76
2021/06/14 10:33:52;;;;;;;;;;;21.50;48.00;;;;;;495036;240;2190;-76
2021/06/14 10:35:54;;;;;;;;;;;21.40;48.20;;;;;;495001;240;768;-76
2021/06/14 10:37:55;;;;;;;;;;;21.40;48.20;;;;;;494258;240;1166;-76
2021/06/14 10:39:56;;;;;;;;;;;21.40;48.30;;;;;;494552;240;1089;-76
2021/06/14 10:41:58;;;;;;;;;;;21.40;48.30;;;;;;494461;240;1272;-76
2021/06/14 10:43:59;;;;;;;;;;;21.40;48.30;;;;;;494231;240;1185;-76
2021/06/14 10:46:01;;;;;;;;;;;21.30;48.10;;;;;;494241;240;1091;-76
2021/06/14 10:48:02;;;;;;;;;;;21.30;48.10;;;;;;494041;240;1287;-76
2021/06/14 10:50:03;;;;;;;;;;;21.30;48.00;;;;;;494593;240;1212;-76
2021/06/14 10:52:06;;;;;;;;;;;21.30;48.10;;;;;;494256;240;1452;-76
2021/06/14 10:54:06;;;;;;;;;;;21.30;48.00;;;;;;494441;240;2190;-76
2021/06/14 10:56:07;;;;;;;;;;;21.20;48.10;;;;;;494459;240;1060;-76
2021/06/14 10:58:08;;;;;;;;;;;21.20;48.10;;;;;;494565;240;1153;-76
2021/06/14 11:00:10;;;;;;;;;;;21.20;48.20;;;;;;493589;240;1024;-76
2021/06/14 11:02:11;;;;;;;;;;;21.30;48.00;;;;;;495072;240;1061;-76
2021/06/14 11:04:12;;;;;;;;;;;21.50;47.80;;;;;;494617;240;1029;-76
2021/06/14 11:06:14;;;;;;;;;;;21.60;47.40;;;;;;495003;240;1413;-76
2021/06/14 11:08:15;;;;;;;;;;;21.70;47.20;;;;;;494839;240;1384;-75
2021/06/14 11:10:16;;;;;;;;;;;21.70;47.00;;;;;;495111;240;1122;-76
2021/06/14 11:12:18;;;;;;;;;;;21.80;46.90;;;;;;494606;240;1137;-74
2021/06/14 11:14:19;;;;;;;;;;;21.80;46.80;;;;;;494277;240;2209;-74
2021/06/14 11:16:20;;;;;;;;;;;21.70;46.80;;;;;;494337;238;1135;-73
2021/06/14 11:18:22;;;;;;;;;;;21.80;46.70;;;;;;494492;240;1095;-73
2021/06/14 11:20:24;;;;;;;;;;;21.80;46.50;;;;;;494494;240;1077;-73
2021/06/14 11:22:25;;;;;;;;;;;21.80;46.40;;;;;;494945;240;1453;-74
2021/06/14 11:24:26;;;;;;;;;;;21.60;46.60;;;;;;494673;240;740;-74
2021/06/14 11:26:27;;;;;;;;;;;21.50;47.00;;;;;;494818;240;1476;-74
2021/06/14 11:28:29;;;;;;;;;;;21.40;47.00;;;;;;494646;240;1017;-73
2021/06/14 11:30:30;;;;;;;;;;;21.40;47.40;;;;;;494861;240;1027;-73
2021/06/14 11:32:32;;;;;;;;;;;21.30;47.40;;;;;;494510;240;974;-73
2021/06/14 11:34:33;;;;;;;;;;;21.30;47.50;;;;;;495077;240;2178;-73
2021/06/14 11:36:34;;;;;;;;;;;21.20;47.60;;;;;;494466;240;1395;-73
2021/06/14 11:38:35;;;;;;;;;;;21.20;47.60;;;;;;494702;240;1042;-73
2021/06/14 11:40:37;;;;;;;;;;;21.20;47.50;;;;;;495136;240;1015;-73
2021/06/14 11:42:38;;;;;;;;;;;21.20;47.40;;;;;;494658;240;1348;-73
2021/06/14 11:44:39;;;;;;;;;;;21.20;47.20;;;;;;494584;240;1069;-74
2021/06/14 11:46:41;;;;;;;;;;;21.20;47.30;;;;;;494470;237;1130;-74
2021/06/14 11:48:42;;;;;;;;;;;21.20;47.00;;;;;;494487;240;1495;-74
2021/06/14 11:50:43;;;;;;;;;;;21.10;47.00;;;;;;494480;240;1188;-73
2021/06/14 11:52:45;;;;;;;;;;;21.20;47.00;;;;;;494351;240;2181;-73
2021/06/14 11:54:48;;;;;;;;;;;21.20;47.00;;;;;;494450;240;1142;-73
2021/06/14 11:56:48;;;;;;;;;;;21.20;46.80;;;;;;494544;240;1297;-73
2021/06/14 11:58:49;;;;;;;;;;;21.20;46.80;;;;;;495246;240;975;-73
2021/06/14 12:00:50;;;;;;;;;;;21.20;46.70;;;;;;494481;240;1130;-73